Sertar, China
Current Conditions -  °F | °C
As of 5:00 AM on Saturday 25 Oct 2014 (Local Time) from ZUUU Reporting Station
Haze Haze  
Wind Chill: 59°   Ceiling: Unl
Heat Index: 59°   Visibility: 1.1mi
Dew Point: 55°   Wind: 2mph
Humidity: 88%   Direction: 190°S
Pressure: 30.03"   Gusts: NA
Location:  32.28°N, 100.33°E
Report Text: ZUUU 242100Z 19001MPS 1800 BR FEW003 15/13 Q1017 BECMG 1200BR
Loading
Personal Weather Stations






























Interactive Weather Map
Tropical Storm Tracking
New forecast layout! Learn more

10-Day Weather Forecast

Advertisements
Track Severe Weather on mobile